West View, Pennsylvania
Current Conditions -  °F | °C
As of 9:23 AM on Tuesday 27 Jan 2015 (Local Time) from KPIT Reporting Station
Light Snow Light Snow  
Wind Chill:   Ceiling: 3200
Heat Index: 19°   Visibility: 2mi
Dew Point: 16°   Wind: 9mph
Humidity: 88%   Direction: 320°NW
Pressure: 29.91"   Gusts: NA
Location:  40.5198°N, 80.0388°W
Report Text: KPIT 271423Z 32008KT 2SM R28R/4000V5000FT -SN SCT015 OVC032 M07/M09 A2991 RMK AO2 P0000 T10721089
Loading
Personal Weather Stations






























Interactive Weather Map New forecast layout! Learn more

10-Day Weather Forecast

Advertisements
Track Severe Weather on mobile